sensor_id;sensor_type;location;lat;lon;timestamp;pressure;altitude;pressure_sealevel;temperature;humidity
72061;BME280;59925;52.136;5.420;2023-07-31T00:02:08;101091.81;;;14.70;100.00
72061;BME280;59925;52.136;5.420;2023-07-31T00:04:34;101089.13;;;14.70;100.00
72061;BME280;59925;52.136;5.420;2023-07-31T00:07:01;101089.38;;;14.74;100.00
72061;BME280;59925;52.136;5.420;2023-07-31T00:09:30;101079.34;;;14.74;100.00
72061;BME280;59925;52.136;5.420;2023-07-31T00:11:56;101075.34;;;14.71;100.00
72061;BME280;59925;52.136;5.420;2023-07-31T00:14:23;101061.03;;;14.71;100.00
72061;BME280;59925;52.136;5.420;2023-07-31T00:16:50;101058.88;;;14.73;100.00
72061;BME280;59925;52.136;5.420;2023-07-31T00:19:18;101049.31;;;14.81;100.00
72061;BME280;59925;52.136;5.420;2023-07-31T00:21:44;101044.44;;;14.83;100.00
72061;BME280;59925;52.136;5.420;2023-07-31T00:24:11;101044.63;;;14.86;100.00
72061;BME280;59925;52.136;5.420;2023-07-31T00:26:37;101049.44;;;14.90;100.00
72061;BME280;59925;52.136;5.420;2023-07-31T00:29:04;101046.97;;;14.93;100.00
72061;BME280;59925;52.136;5.420;2023-07-31T00:31:31;101050.75;;;14.92;100.00
72061;BME280;59925;52.136;5.420;2023-07-31T00:33:57;101052.88;;;14.95;100.00
72061;BME280;59925;52.136;5.420;2023-07-31T00:36:24;101040.47;;;14.94;100.00
72061;BME280;59925;52.136;5.420;2023-07-31T00:38:50;101042.06;;;14.95;100.00
72061;BME280;59925;52.136;5.420;2023-07-31T00:41:17;101040.09;;;15.01;100.00
72061;BME280;59925;52.136;5.420;2023-07-31T00:43:43;101040.31;;;15.05;100.00
72061;BME280;59925;52.136;5.420;2023-07-31T00:46:10;101035.34;;;15.12;100.00
72061;BME280;59925;52.136;5.420;2023-07-31T00:48:37;101030.66;;;15.17;100.00
72061;BME280;59925;52.136;5.420;2023-07-31T00:51:04;101026.75;;;15.24;100.00
72061;BME280;59925;52.136;5.420;2023-07-31T00:53:31;101024.50;;;15.31;100.00
72061;BME280;59925;52.136;5.420;2023-07-31T00:55:57;101026.50;;;15.39;100.00
72061;BME280;59925;52.136;5.420;2023-07-31T00:58:24;101029.63;;;15.46;100.00
72061;BME280;59925;52.136;5.420;2023-07-31T01:00:51;101031.94;;;15.53;100.00
72061;BME280;59925;52.136;5.420;2023-07-31T01:03:18;101026.44;;;15.58;100.00
72061;BME280;59925;52.136;5.420;2023-07-31T01:08:42;101022.44;;;15.70;100.00
72061;BME280;59925;52.136;5.420;2023-07-31T01:11:26;101013.44;;;15.74;100.00
72061;BME280;59925;52.136;5.420;2023-07-31T01:13:57;101014.44;;;15.78;100.00
72061;BME280;59925;52.136;5.420;2023-07-31T01:16:25;101023.53;;;15.83;100.00
72061;BME280;59925;52.136;5.420;2023-07-31T01:18:52;101026.78;;;15.85;100.00
72061;BME280;59925;52.136;5.420;2023-07-31T01:27:13;101034.84;;;15.71;100.00
72061;BME280;59925;52.136;5.420;2023-07-31T01:29:49;101035.47;;;15.68;100.00
72061;BME280;59925;52.136;5.420;2023-07-31T01:32:22;101025.25;;;15.65;100.00
72061;BME280;59925;52.136;5.420;2023-07-31T01:34:51;101018.13;;;15.69;100.00
72061;BME280;59925;52.136;5.420;2023-07-31T01:37:18;101029.75;;;15.69;100.00
72061;BME280;59925;52.136;5.420;2023-07-31T01:39:45;101026.53;;;15.67;100.00
72061;BME280;59925;52.136;5.420;2023-07-31T01:42:11;101020.53;;;15.70;100.00
72061;BME280;59925;52.136;5.420;2023-07-31T01:44:38;101026.13;;;15.74;100.00
72061;BME280;59925;52.136;5.420;2023-07-31T01:47:05;101026.13;;;15.74;100.00
72061;BME280;59925;52.136;5.420;2023-07-31T01:49:31;101023.44;;;15.74;100.00
72061;BME280;59925;52.136;5.420;2023-07-31T01:51:58;101024.72;;;15.76;100.00
72061;BME280;59925;52.136;5.420;2023-07-31T01:54:24;101011.44;;;15.80;100.00
72061;BME280;59925;52.136;5.420;2023-07-31T01:56:51;101008.75;;;15.80;100.00
72061;BME280;59925;52.136;5.420;2023-07-31T01:59:17;101011.13;;;15.82;100.00
72061;BME280;59925;52.136;5.420;2023-07-31T02:01:44;101003.03;;;15.82;100.00
72061;BME280;59925;52.136;5.420;2023-07-31T02:04:11;101001.59;;;15.84;100.00
72061;BME280;59925;52.136;5.420;2023-07-31T02:06:37;101010.81;;;15.83;100.00
72061;BME280;59925;52.136;5.420;2023-07-31T02:09:04;101003.53;;;15.84;100.00
72061;BME280;59925;52.136;5.420;2023-07-31T02:11:31;100993.81;;;15.83;100.00
72061;BME280;59925;52.136;5.420;2023-07-31T02:13:57;100995.69;;;15.82;100.00
72061;BME280;59925;52.136;5.420;2023-07-31T02:16:24;100985.19;;;15.81;100.00
72061;BME280;59925;52.136;5.420;2023-07-31T02:18:50;100983.59;;;15.79;100.00
72061;BME280;59925;52.136;5.420;2023-07-31T02:21:17;100982.31;;;15.77;100.00
72061;BME280;59925;52.136;5.420;2023-07-31T02:23:43;100970.66;;;15.76;100.00
72061;BME280;59925;52.136;5.420;2023-07-31T02:26:10;100974.28;;;15.72;100.00
72061;BME280;59925;52.136;5.420;2023-07-31T02:28:36;100976.97;;;15.72;100.00
72061;BME280;59925;52.136;5.420;2023-07-31T02:31:03;100972.09;;;15.74;100.00
72061;BME280;59925;52.136;5.420;2023-07-31T02:33:30;100971.78;;;15.75;100.00
72061;BME280;59925;52.136;5.420;2023-07-31T02:35:57;100967.78;;;15.73;100.00
72061;BME280;59925;52.136;5.420;2023-07-31T02:38:23;100971.59;;;15.72;100.00
72061;BME280;59925;52.136;5.420;2023-07-31T02:40:50;100966.19;;;15.72;100.00
72061;BME280;59925;52.136;5.420;2023-07-31T02:43:16;100967.78;;;15.73;100.00
72061;BME280;59925;52.136;5.420;2023-07-31T02:45:43;100978.00;;;15.76;100.00
72061;BME280;59925;52.136;5.420;2023-07-31T02:48:09;100974.00;;;15.73;100.00
72061;BME280;59925;52.136;5.420;2023-07-31T02:50:36;100972.59;;;15.76;100.00
72061;BME280;59925;52.136;5.420;2023-07-31T02:53:03;100970.78;;;15.71;100.00
72061;BME280;59925;52.136;5.420;2023-07-31T02:55:29;100971.28;;;15.73;100.00
72061;BME280;59925;52.136;5.420;2023-07-31T02:57:56;100958.56;;;15.74;100.00
72061;BME280;59925;52.136;5.420;2023-07-31T03:00:22;100953.47;;;15.72;100.00
72061;BME280;59925;52.136;5.420;2023-07-31T03:02:49;100957.28;;;15.71;100.00
72061;BME280;59925;52.136;5.420;2023-07-31T03:05:15;100955.38;;;15.72;100.00
72061;BME280;59925;52.136;5.420;2023-07-31T03:07:42;100956.47;;;15.71;100.00
72061;BME280;59925;52.136;5.420;2023-07-31T03:10:08;100949.97;;;15.72;100.00
72061;BME280;59925;52.136;5.420;2023-07-31T03:12:35;100959.38;;;15.74;100.00
72061;BME280;59925;52.136;5.420;2023-07-31T03:15:02;100957.16;;;15.76;100.00
72061;BME280;59925;52.136;5.420;2023-07-31T03:17:28;100957.78;;;15.73;100.00
72061;BME280;59925;52.136;5.420;2023-07-31T03:19:55;100963.19;;;15.73;100.00
72061;BME280;59925;52.136;5.420;2023-07-31T03:22:21;100954.25;;;15.73;100.00
72061;BME280;59925;52.136;5.420;2023-07-31T03:24:48;100947.44;;;15.75;100.00
72061;BME280;59925;52.136;5.420;2023-07-31T03:27:14;100953.97;;;15.74;100.00
72061;BME280;59925;52.136;5.420;2023-07-31T03:29:41;100949.97;;;15.72;100.00
72061;BME280;59925;52.136;5.420;2023-07-31T03:32:07;100948.34;;;15.71;100.00
72061;BME280;59925;52.136;5.420;2023-07-31T03:34:34;100946.75;;;15.70;100.00
72061;BME280;59925;52.136;5.420;2023-07-31T03:37:00;100952.16;;;15.70;100.00
72061;BME280;59925;52.136;5.420;2023-07-31T03:39:27;100958.19;;;15.67;100.00
72061;BME280;59925;52.136;5.420;2023-07-31T03:41:53;100948.25;;;15.62;100.00
72061;BME280;59925;52.136;5.420;2023-07-31T03:44:20;100950.38;;;15.65;100.00
72061;BME280;59925;52.136;5.420;2023-07-31T03:46:46;100946.28;;;15.68;100.00
72061;BME280;59925;52.136;5.420;2023-07-31T03:49:13;100954.97;;;15.65;100.00
72061;BME280;59925;52.136;5.420;2023-07-31T03:51:40;100943.16;;;15.60;100.00
72061;BME280;59925;52.136;5.420;2023-07-31T03:54:08;100940.97;;;15.62;100.00
72061;BME280;59925;52.136;5.420;2023-07-31T03:56:34;100945.28;;;15.63;100.00
72061;BME280;59925;52.136;5.420;2023-07-31T03:59:01;100946.47;;;15.57;100.00
72061;BME280;59925;52.136;5.420;2023-07-31T04:01:28;100942.66;;;15.58;100.00
72061;BME280;59925;52.136;5.420;2023-07-31T04:03:55;100939.16;;;15.58;100.00
72061;BME280;59925;52.136;5.420;2023-07-31T04:06:21;100940.28;;;15.57;100.00
72061;BME280;59925;52.136;5.420;2023-07-31T04:08:48;100932.75;;;15.54;100.00
72061;BME280;59925;52.136;5.420;2023-07-31T04:11:14;100929.28;;;15.53;100.00
72061;BME280;59925;52.136;5.420;2023-07-31T04:13:41;100919.34;;;15.48;100.00
72061;BME280;59925;52.136;5.420;2023-07-31T04:16:07;100919.97;;;15.45;100.00
72061;BME280;59925;52.136;5.420;2023-07-31T04:18:34;100912.97;;;15.44;100.00
72061;BME280;59925;52.136;5.420;2023-07-31T04:21:00;100909.44;;;15.44;100.00
72061;BME280;59925;52.136;5.420;2023-07-31T04:23:30;100905.94;;;15.43;100.00
72061;BME280;59925;52.136;5.420;2023-07-31T04:25:56;100903.06;;;15.40;100.00
72061;BME280;59925;52.136;5.420;2023-07-31T04:28:23;100900.94;;;15.37;100.00
72061;BME280;59925;52.136;5.420;2023-07-31T04:30:49;100896.84;;;15.39;100.00
72061;BME280;59925;52.136;5.420;2023-07-31T04:33:16;100904.94;;;15.39;100.00
72061;BME280;59925;52.136;5.420;2023-07-31T04:35:51;100901.72;;;15.37;100.00
72061;BME280;59925;52.136;5.420;2023-07-31T04:38:21;100911.44;;;15.38;100.00
72061;BME280;59925;52.136;5.420;2023-07-31T04:40:48;100916.34;;;15.36;100.00
72061;BME280;59925;52.136;5.420;2023-07-31T04:43:15;100919.03;;;15.36;100.00
72061;BME280;59925;52.136;5.420;2023-07-31T04:45:44;100913.34;;;15.38;100.00
72061;BME280;59925;52.136;5.420;2023-07-31T04:48:12;100907.13;;;15.37;100.00
72061;BME280;59925;52.136;5.420;2023-07-31T04:50:39;100912.53;;;15.37;100.00
72061;BME280;59925;52.136;5.420;2023-07-31T04:53:05;100905.84;;;15.35;100.00
72061;BME280;59925;52.136;5.420;2023-07-31T04:55:32;100913.16;;;15.34;100.00
72061;BME280;59925;52.136;5.420;2023-07-31T04:57:59;100897.56;;;15.31;100.00
72061;BME280;59925;52.136;5.420;2023-07-31T05:00:25;100894.53;;;15.32;100.00
72061;BME280;59925;52.136;5.420;2023-07-31T05:02:52;100898.66;;;15.30;100.00
72061;BME280;59925;52.136;5.420;2023-07-31T05:05:18;100887.34;;;15.28;100.00
72061;BME280;59925;52.136;5.420;2023-07-31T05:07:45;100881.94;;;15.28;100.00
72061;BME280;59925;52.136;5.420;2023-07-31T05:10:11;100879.81;;;15.25;100.00
72061;BME280;59925;52.136;5.420;2023-07-31T05:12:38;100886.03;;;15.25;100.00
72061;BME280;59925;52.136;5.420;2023-07-31T05:15:05;100879.81;;;15.25;100.00
72061;BME280;59925;52.136;5.420;2023-07-31T05:17:31;100889.53;;;15.26;100.00
72061;BME280;59925;52.136;5.420;2023-07-31T05:19:58;100877.31;;;15.28;100.00
72061;BME280;59925;52.136;5.420;2023-07-31T05:22:24;100880.25;;;15.32;100.00
72061;BME280;59925;52.136;5.420;2023-07-31T05:24:51;100882.72;;;15.28;100.00
72061;BME280;59925;52.136;5.420;2023-07-31T05:27:17;100878.44;;;15.27;100.00
72061;BME280;59925;52.136;5.420;2023-07-31T05:29:44;100869.53;;;15.27;100.00
72061;BME280;59925;52.136;5.420;2023-07-31T05:32:11;100872.53;;;15.25;100.00
72061;BME280;59925;52.136;5.420;2023-07-31T05:34:38;100870.44;;;15.22;100.00
72061;BME280;59925;52.136;5.420;2023-07-31T05:37:05;100865.81;;;15.23;100.00
72061;BME280;59925;52.136;5.420;2023-07-31T05:39:32;100859.94;;;15.21;100.00
72061;BME280;59925;52.136;5.420;2023-07-31T05:41:58;100865.53;;;15.24;100.00
72061;BME280;59925;52.136;5.420;2023-07-31T05:44:25;100870.94;;;15.24;100.00
72061;BME280;59925;52.136;5.420;2023-07-31T05:46:51;100854.22;;;15.22;100.00
72061;BME280;59925;52.136;5.420;2023-07-31T05:49:18;100850.13;;;15.25;100.00
72061;BME280;59925;52.136;5.420;2023-07-31T05:51:44;100855.03;;;15.23;100.00
72061;BME280;59925;52.136;5.420;2023-07-31T05:54:11;100848.03;;;15.22;100.00
72061;BME280;59925;52.136;5.420;2023-07-31T05:56:37;100845.81;;;15.24;100.00
72061;BME280;59925;52.136;5.420;2023-07-31T05:59:04;100833.41;;;15.23;100.00
72061;BME280;59925;52.136;5.420;2023-07-31T06:01:31;100833.72;;;15.21;100.00
72061;BME280;59925;52.136;5.420;2023-07-31T06:03:58;100832.63;;;15.22;100.00
72061;BME280;59925;52.136;5.420;2023-07-31T06:06:25;100829.94;;;15.22;100.00
72061;BME280;59925;52.136;5.420;2023-07-31T06:08:51;100821.50;;;15.24;100.00
72061;BME280;59925;52.136;5.420;2023-07-31T06:11:19;100826.63;;;15.25;100.00
72061;BME280;59925;52.136;5.420;2023-07-31T06:13:46;100829.03;;;15.27;100.00
72061;BME280;59925;52.136;5.420;2023-07-31T06:16:14;100822.31;;;15.24;100.00
72061;BME280;59925;52.136;5.420;2023-07-31T06:18:41;100821.72;;;15.27;100.00
72061;BME280;59925;52.136;5.420;2023-07-31T06:21:09;100822.03;;;15.26;100.00
72061;BME280;59925;52.136;5.420;2023-07-31T06:23:36;100816.94;;;15.24;100.00
72061;BME280;59925;52.136;5.420;2023-07-31T06:26:02;100821.22;;;15.25;100.00
72061;BME280;59925;52.136;5.420;2023-07-31T06:28:30;100810.31;;;15.30;100.00
72061;BME280;59925;52.136;5.420;2023-07-31T06:30:57;100812.91;;;15.36;100.00
72061;BME280;59925;52.136;5.420;2023-07-31T06:33:24;100816.41;;;15.36;100.00
72061;BME280;59925;52.136;5.420;2023-07-31T06:35:51;100815.28;;;15.37;100.00
72061;BME280;59925;52.136;5.420;2023-07-31T06:38:23;100801.00;;;15.37;100.00
72061;BME280;59925;52.136;5.420;2023-07-31T06:40:52;100795.00;;;15.40;100.00
72061;BME280;59925;52.136;5.420;2023-07-31T06:43:18;100801.19;;;15.40;100.00
72061;BME280;59925;52.136;5.420;2023-07-31T06:45:45;100791.41;;;15.44;100.00
72061;BME280;59925;52.136;5.420;2023-07-31T06:48:12;100785.84;;;15.50;100.00
72061;BME280;59925;52.136;5.420;2023-07-31T06:50:39;100767.75;;;15.50;100.00
72061;BME280;59925;52.136;5.420;2023-07-31T06:53:05;100787.34;;;15.56;100.00
72061;BME280;59925;52.136;5.420;2023-07-31T06:55:32;100796.56;;;15.55;100.00
72061;BME280;59925;52.136;5.420;2023-07-31T06:58:00;100780.25;;;15.60;100.00
72061;BME280;59925;52.136;5.420;2023-07-31T07:00:27;100769.13;;;15.61;100.00
72061;BME280;59925;52.136;5.420;2023-07-31T07:02:53;100784.13;;;15.68;100.00
72061;BME280;59925;52.136;5.420;2023-07-31T07:05:20;100762.69;;;15.71;100.00
72061;BME280;59925;52.136;5.420;2023-07-31T07:07:49;100773.19;;;15.73;100.00
72061;BME280;59925;52.136;5.420;2023-07-31T07:10:17;100775.28;;;15.76;100.00
72061;BME280;59925;52.136;5.420;2023-07-31T07:12:43;100771.31;;;15.73;100.00
72061;BME280;59925;52.136;5.420;2023-07-31T07:15:10;100773.88;;;15.78;100.00
72061;BME280;59925;52.136;5.420;2023-07-31T07:17:36;100770.56;;;15.82;100.00
72061;BME280;59925;52.136;5.420;2023-07-31T07:20:03;100777.88;;;15.81;100.00
72061;BME280;59925;52.136;5.420;2023-07-31T07:22:30;100773.25;;;15.82;100.00
72061;BME280;59925;52.136;5.420;2023-07-31T07:24:56;100760.78;;;15.86;100.00
72061;BME280;59925;52.136;5.420;2023-07-31T07:27:23;100779.06;;;15.89;100.00
72061;BME280;59925;52.136;5.420;2023-07-31T07:29:51;100775.25;;;15.90;100.00
72061;BME280;59925;52.136;5.420;2023-07-31T07:32:20;100778.63;;;15.96;100.00
72061;BME280;59925;52.136;5.420;2023-07-31T07:34:48;100773.91;;;16.01;100.00
72061;BME280;59925;52.136;5.420;2023-07-31T07:37:15;100773.28;;;16.04;100.00
72061;BME280;59925;52.136;5.420;2023-07-31T07:39:42;100775.22;;;16.04;100.00
72061;BME280;59925;52.136;5.420;2023-07-31T07:42:09;100774.59;;;16.07;100.00
72061;BME280;59925;52.136;5.420;2023-07-31T07:44:35;100766.78;;;16.05;100.00
72061;BME280;59925;52.136;5.420;2023-07-31T07:47:02;100760.25;;;16.06;100.00
72061;BME280;59925;52.136;5.420;2023-07-31T07:49:28;100763.97;;;16.11;100.00
72061;BME280;59925;52.136;5.420;2023-07-31T07:51:55;100761.88;;;16.07;100.00
72061;BME280;59925;52.136;5.420;2023-07-31T07:54:21;100758.56;;;16.11;100.00
72061;BME280;59925;52.136;5.420;2023-07-31T07:56:48;100763.81;;;16.16;100.00
72061;BME280;59925;52.136;5.420;2023-07-31T07:59:16;100753.00;;;16.16;100.00
72061;BME280;59925;52.136;5.420;2023-07-31T08:01:42;100758.78;;;16.23;100.00
72061;BME280;59925;52.136;5.420;2023-07-31T08:04:08;100748.75;;;16.23;100.00
72061;BME280;59925;52.136;5.420;2023-07-31T08:06:35;100757.22;;;16.31;100.00
72061;BME280;59925;52.136;5.420;2023-07-31T08:09:02;100741.97;;;16.35;100.00
72061;BME280;59925;52.136;5.420;2023-07-31T08:11:32;100755.03;;;16.42;100.00
72061;BME280;59925;52.136;5.420;2023-07-31T08:13:59;100743.88;;;16.34;100.00
72061;BME280;59925;52.136;5.420;2023-07-31T08:16:26;100748.84;;;16.41;100.00
72061;BME280;59925;52.136;5.420;2023-07-31T08:18:53;100746.31;;;16.45;100.00
72061;BME280;59925;52.136;5.420;2023-07-31T08:21:22;100740.72;;;16.41;100.00
72061;BME280;59925;52.136;5.420;2023-07-31T08:23:49;100736.16;;;16.50;100.00
72061;BME280;59925;52.136;5.420;2023-07-31T08:26:17;100733.75;;;16.49;100.00
72061;BME280;59925;52.136;5.420;2023-07-31T08:28:43;100733.44;;;16.50;100.00
72061;BME280;59925;52.136;5.420;2023-07-31T08:31:10;100735.03;;;16.51;100.00
72061;BME280;59925;52.136;5.420;2023-07-31T08:33:38;100730.28;;;16.57;100.00
72061;BME280;59925;52.136;5.420;2023-07-31T08:36:05;100737.28;;;16.58;100.00
72061;BME280;59925;52.136;5.420;2023-07-31T08:38:32;100726.78;;;16.57;100.00
72061;BME280;59925;52.136;5.420;2023-07-31T08:40:58;100726.63;;;16.62;100.00
72061;BME280;59925;52.136;5.420;2023-07-31T08:43:26;100729.25;;;16.76;100.00
72061;BME280;59925;52.136;5.420;2023-07-31T08:45:53;100723.41;;;16.91;100.00
72061;BME280;59925;52.136;5.420;2023-07-31T08:48:22;100728.19;;;16.94;100.00
72061;BME280;59925;52.136;5.420;2023-07-31T08:50:49;100723.75;;;16.98;100.00
72061;BME280;59925;52.136;5.420;2023-07-31T08:53:15;100727.72;;;17.01;100.00
72061;BME280;59925;52.136;5.420;2023-07-31T08:55:44;100723.75;;;17.07;100.00
72061;BME280;59925;52.136;5.420;2023-07-31T08:58:12;100748.78;;;17.13;100.00
72061;BME280;59925;52.136;5.420;2023-07-31T09:00:40;100732.38;;;17.09;100.00
72061;BME280;59925;52.136;5.420;2023-07-31T09:03:22;100729.69;;;17.18;100.00
72061;BME280;59925;52.136;5.420;2023-07-31T09:05:49;100736.06;;;17.13;100.00
72061;BME280;59925;52.136;5.420;2023-07-31T09:08:19;100735.88;;;17.10;100.00
72061;BME280;59925;52.136;5.420;2023-07-31T09:10:47;100719.97;;;17.17;100.00
72061;BME280;59925;52.136;5.420;2023-07-31T09:13:14;100729.38;;;17.28;100.00
72061;BME280;59925;52.136;5.420;2023-07-31T09:15:44;100735.44;;;17.34;100.00
72061;BME280;59925;52.136;5.420;2023-07-31T09:18:11;100731.44;;;17.40;100.00
72061;BME280;59925;52.136;5.420;2023-07-31T09:20:38;100720.59;;;17.23;100.00
72061;BME280;59925;52.136;5.420;2023-07-31T09:23:08;100726.97;;;17.18;100.00
72061;BME280;59925;52.136;5.420;2023-07-31T09:25:36;100713.41;;;17.09;100.00
72061;BME280;59925;52.136;5.420;2023-07-31T09:28:07;100716.25;;;17.04;100.00
72061;BME280;59925;52.136;5.420;2023-07-31T09:30:48;100722.97;;;17.07;100.00
72061;BME280;59925;52.136;5.420;2023-07-31T09:33:16;100709.28;;;17.12;100.00
72061;BME280;59925;52.136;5.420;2023-07-31T09:35:43;100721.38;;;17.23;100.00
72061;BME280;59925;52.136;5.420;2023-07-31T09:38:13;100722.03;;;17.20;100.00
72061;BME280;59925;52.136;5.420;2023-07-31T09:40:45;100712.78;;;17.21;100.00
72061;BME280;59925;52.136;5.420;2023-07-31T09:43:17;100716.94;;;17.27;100.00
72061;BME280;59925;52.136;5.420;2023-07-31T09:45:44;100709.47;;;17.42;100.00
72061;BME280;59925;52.136;5.420;2023-07-31T09:48:12;100716.28;;;17.48;100.00
72061;BME280;59925;52.136;5.420;2023-07-31T09:50:41;100713.78;;;17.52;100.00
72061;BME280;59925;52.136;5.420;2023-07-31T09:53:08;100708.78;;;17.54;100.00
72061;BME280;59925;52.136;5.420;2023-07-31T09:55:36;100708.66;;;17.59;100.00
72061;BME280;59925;52.136;5.420;2023-07-31T09:58:04;100712.47;;;17.58;100.00
72061;BME280;59925;52.136;5.420;2023-07-31T10:00:31;100718.53;;;17.64;100.00
72061;BME280;59925;52.136;5.420;2023-07-31T10:03:00;100716.16;;;17.62;100.00
72061;BME280;59925;52.136;5.420;2023-07-31T10:05:45;100703.38;;;17.54;100.00
72061;BME280;59925;52.136;5.420;2023-07-31T10:08:15;100707.53;;;17.69;100.00
72061;BME280;59925;52.136;5.420;2023-07-31T10:10:43;100704.47;;;17.79;100.00
72061;BME280;59925;52.136;5.420;2023-07-31T10:13:11;100698.72;;;17.98;100.00
72061;BME280;59925;52.136;5.420;2023-07-31T10:15:38;100706.53;;;17.91;100.00
72061;BME280;59925;52.136;5.420;2023-07-31T10:18:07;100711.34;;;17.85;100.00
72061;BME280;59925;52.136;5.420;2023-07-31T10:20:35;100713.22;;;17.93;100.00
72061;BME280;59925;52.136;5.420;2023-07-31T10:23:03;100710.22;;;17.86;100.00
72061;BME280;59925;52.136;5.420;2023-07-31T10:25:30;100708.94;;;17.84;100.00
72061;BME280;59925;52.136;5.420;2023-07-31T10:27:58;100707.66;;;17.81;100.00
72061;BME280;59925;52.136;5.420;2023-07-31T10:30:29;100708.78;;;17.80;100.00
72061;BME280;59925;52.136;5.420;2023-07-31T10:32:57;100713.44;;;17.80;100.00
72061;BME280;59925;52.136;5.420;2023-07-31T10:35:24;100707.19;;;17.70;100.00
72061;BME280;59925;52.136;5.420;2023-07-31T10:37:51;100705.44;;;17.66;100.00
72061;BME280;59925;52.136;5.420;2023-07-31T10:40:24;100701.97;;;17.65;100.00
72061;BME280;59925;52.136;5.420;2023-07-31T10:42:55;100710.88;;;17.74;100.00
72061;BME280;59925;52.136;5.420;2023-07-31T10:45:39;100711.97;;;17.82;100.00
72061;BME280;59925;52.136;5.420;2023-07-31T10:48:17;100703.03;;;17.82;100.00
72061;BME280;59925;52.136;5.420;2023-07-31T10:50:49;100712.59;;;17.88;100.00
72061;BME280;59925;52.136;5.420;2023-07-31T10:53:29;100708.28;;;17.87;100.00
72061;BME280;59925;52.136;5.420;2023-07-31T10:56:06;100708.13;;;17.92;100.00
72061;BME280;59925;52.136;5.420;2023-07-31T10:58:34;100714.00;;;17.94;100.00
72061;BME280;59925;52.136;5.420;2023-07-31T11:01:03;100703.81;;;18.00;100.00
72061;BME280;59925;52.136;5.420;2023-07-31T11:03:50;100706.53;;;18.00;100.00
72061;BME280;59925;52.136;5.420;2023-07-31T11:06:20;100702.69;;;18.01;100.00
72061;BME280;59925;52.136;5.420;2023-07-31T11:08:49;100709.06;;;18.05;100.00
72061;BME280;59925;52.136;5.420;2023-07-31T11:11:17;100706.00;;;18.15;100.00
72061;BME280;59925;52.136;5.420;2023-07-31T11:13:48;100706.47;;;18.26;100.00
72061;BME280;59925;52.136;5.420;2023-07-31T11:16:23;100704.53;;;18.27;100.00
72061;BME280;59925;52.136;5.420;2023-07-31T11:18:51;100706.44;;;18.35;100.00
72061;BME280;59925;52.136;5.420;2023-07-31T11:21:21;100712.38;;;18.28;100.00
72061;BME280;59925;52.136;5.420;2023-07-31T11:23:53;100705.34;;;18.27;100.00
72061;BME280;59925;52.136;5.420;2023-07-31T11:26:20;100702.50;;;18.23;100.00
72061;BME280;59925;52.136;5.420;2023-07-31T11:28:47;100699.78;;;18.23;100.00
72061;BME280;59925;52.136;5.420;2023-07-31T11:31:14;100701.31;;;18.33;100.00
72061;BME280;59925;52.136;5.420;2023-07-31T11:33:41;100700.19;;;18.34;100.00
72061;BME280;59925;52.136;5.420;2023-07-31T11:36:19;100690.00;;;18.31;100.00
72061;BME280;59925;52.136;5.420;2023-07-31T11:38:46;100693.38;;;18.28;100.00
72061;BME280;59925;52.136;5.420;2023-07-31T11:41:16;100703.28;;;18.24;100.00
72061;BME280;59925;52.136;5.420;2023-07-31T11:43:45;100692.91;;;18.26;100.00
72061;BME280;59925;52.136;5.420;2023-07-31T11:46:13;100691.94;;;18.22;100.00
72061;BME280;59925;52.136;5.420;2023-07-31T11:48:41;100694.38;;;18.15;100.00
72061;BME280;59925;52.136;5.420;2023-07-31T11:51:10;100702.03;;;18.13;100.00
72061;BME280;59925;52.136;5.420;2023-07-31T11:53:44;100693.63;;;18.05;100.00
72061;BME280;59925;52.136;5.420;2023-07-31T11:56:14;100681.78;;;18.10;100.00
72061;BME280;59925;52.136;5.420;2023-07-31T11:58:43;100688.03;;;18.02;100.00
72061;BME280;59925;52.136;5.420;2023-07-31T12:01:10;100687.09;;;17.98;100.00
72061;BME280;59925;52.136;5.420;2023-07-31T12:03:38;100690.28;;;17.91;100.00
72061;BME280;59925;52.136;5.420;2023-07-31T12:06:05;100689.31;;;17.87;100.00
72061;BME280;59925;52.136;5.420;2023-07-31T12:08:31;100692.16;;;17.90;100.00
72061;BME280;59925;52.136;5.420;2023-07-31T12:11:03;100680.03;;;17.97;100.00
72061;BME280;59925;52.136;5.420;2023-07-31T12:13:31;100691.84;;;18.01;100.00
72061;BME280;59925;52.136;5.420;2023-07-31T12:16:00;100697.75;;;18.03;100.00
72061;BME280;59925;52.136;5.420;2023-07-31T12:18:30;100688.00;;;18.11;100.00
72061;BME280;59925;52.136;5.420;2023-07-31T12:20:58;100689.91;;;18.19;100.00
72061;BME280;59925;52.136;5.420;2023-07-31T12:28:27;100679.94;;;18.32;100.00
72061;BME280;59925;52.136;5.420;2023-07-31T12:30:57;100685.50;;;18.35;100.00
72061;BME280;59925;52.136;5.420;2023-07-31T12:33:34;100668.09;;;18.36;100.00
72061;BME280;59925;52.136;5.420;2023-07-31T12:36:02;100671.47;;;18.33;100.00
72061;BME280;59925;52.136;5.420;2023-07-31T12:38:30;100658.22;;;18.32;100.00
72061;BME280;59925;52.136;5.420;2023-07-31T12:40:57;100671.66;;;18.28;100.00
72061;BME280;59925;52.136;5.420;2023-07-31T12:43:23;100654.78;;;18.22;100.00
72061;BME280;59925;52.136;5.420;2023-07-31T12:45:50;100653.31;;;18.25;100.00
72061;BME280;59925;52.136;5.420;2023-07-31T12:48:17;100661.41;;;18.34;100.00
72061;BME280;59925;52.136;5.420;2023-07-31T12:50:43;100660.91;;;18.41;100.00
72061;BME280;59925;52.136;5.420;2023-07-31T12:53:10;100661.84;;;18.45;100.00
72061;BME280;59925;52.136;5.420;2023-07-31T12:55:36;100657.06;;;18.42;100.00
72061;BME280;59925;52.136;5.420;2023-07-31T12:58:03;100640.16;;;18.45;100.00